Baker, Louisiana
Current Conditions -  °F | °C
As of 7:36 AM on Friday 19 Dec 2014 (Local Time) from KBTR Reporting Station
Light Rain Light Rain  
Wind Chill: 54°   Ceiling: 300
Heat Index: 54°   Visibility: 3mi
Dew Point: 52°   Wind: 12mph
Humidity: 93%   Direction: 70°ENE
Pressure: 30.13"   Gusts: NA
Location:  30.59°N, 91.17°W
Report Text: KBTR 191336Z 07010KT 3SM -RA BR BKN003 BKN030 OVC060 12/11 A3013 RMK AO2 P0006 T01220111
Loading
Personal Weather Stations






























Interactive Weather Map New forecast layout! Learn more

10-Day Weather Forecast

Advertisements
Track Severe Weather on mobile